Biddle, Montana
Current Conditions -  °F | °C
As of 2:36 PM on Wednesday 26 Nov 2014 (Local Time) from KGCC Reporting Station
Light Snow Light Snow  
Wind Chill: -5°   Ceiling: 2900
Heat Index: -2°   Visibility: 2mi
Dew Point: -4°   Wind: 5mph
Humidity: 85%   Direction: 170°S
Pressure: 30.18"   Gusts: NA
Location:  45.1°N, 105.35°W
Report Text: KGCC 262136Z AUTO 17004KT 2SM -SN BR BKN029 OVC037 M02/M04 A3018 RMK AO2 SNB04 P0001 T10221044 TSNO
Loading
Personal Weather Stations






























Interactive Weather Map New forecast layout! Learn more

10-Day Weather Forecast

Advertisements
Track Severe Weather on mobile